createdAt,value
2019-03-13T00:00:44.946Z,95139.86
2019-03-13T00:03:16.795Z,95139.86
2019-03-13T00:05:46.490Z,95144.22
2019-03-13T00:08:16.222Z,95144.36
2019-03-13T00:10:45.974Z,95153.66
2019-03-13T00:13:18.150Z,95146.26
2019-03-13T00:15:49.710Z,95146.26
2019-03-13T00:18:19.052Z,95145.14
2019-03-13T00:20:51.975Z,95148.84
2019-03-13T00:23:27.167Z,95148.84
2019-03-13T00:25:56.786Z,95143.73
2019-03-13T00:28:26.325Z,95137.94
2019-03-13T00:30:55.968Z,95149.45
2019-03-13T00:33:26.977Z,95134.28
2019-03-13T00:35:57.999Z,95134.28
2019-03-13T00:38:27.569Z,95136.18
2019-03-13T00:40:57.217Z,95134.55
2019-03-13T00:43:26.922Z,95126.27
2019-03-13T00:45:56.586Z,95120.36
2019-03-13T00:48:26.159Z,95120.36
2019-03-13T00:50:55.782Z,95130.44
2019-03-13T00:53:31.581Z,95130.59
2019-03-13T00:56:03.152Z,95130.59
2019-03-13T00:58:32.806Z,95128.51
2019-03-13T01:01:20.077Z,95122.91
2019-03-13T01:04:08.815Z,95108.48
2019-03-13T01:06:46.987Z,95108.48
2019-03-13T01:09:16.634Z,95107.68
2019-03-13T01:11:47.595Z,95095.09
2019-03-13T01:14:18.221Z,95095.09
2019-03-13T01:16:48.117Z,95093.02
2019-03-13T01:19:21.280Z,95103.33
2019-03-13T01:21:50.862Z,95103.98
2019-03-13T01:24:20.509Z,95103.80
2019-03-13T01:26:52.024Z,95103.80
2019-03-13T01:29:22.580Z,95106.81
2019-03-13T01:32:09.798Z,95105.36
2019-03-13T01:34:57.121Z,95105.22
2019-03-13T01:37:26.909Z,95104.91
2019-03-13T01:39:58.698Z,95104.20
2019-03-13T01:42:28.327Z,95097.80
2019-03-13T01:44:58.027Z,95096.19
2019-03-13T01:47:31.048Z,95103.20
2019-03-13T01:50:00.778Z,95088.46
2019-03-13T01:52:32.336Z,95088.46
2019-03-13T01:55:02.142Z,95089.41
2019-03-13T01:57:31.649Z,95094.31
2019-03-13T02:00:01.274Z,95090.51
2019-03-13T02:02:32.617Z,95090.51
2019-03-13T02:05:02.365Z,95096.25
2019-03-13T02:07:32.077Z,95102.28
2019-03-13T02:10:05.540Z,95101.66
2019-03-13T02:12:38.570Z,95104.53
2019-03-13T02:15:09.074Z,95110.35
2019-03-13T02:17:38.672Z,95110.35
2019-03-13T02:20:09.157Z,95101.03
2019-03-13T02:22:38.848Z,95102.91
2019-03-13T02:25:09.782Z,95098.38
2019-03-13T02:27:41.302Z,95106.84
2019-03-13T02:30:12.438Z,95106.84
2019-03-13T02:32:42.112Z,95101.59
2019-03-13T02:35:11.819Z,95099.95
2019-03-13T02:37:41.496Z,95103.30
2019-03-13T02:40:11.692Z,95105.67
2019-03-13T02:42:41.580Z,95111.41
2019-03-13T02:45:11.766Z,95117.83
2019-03-13T02:47:41.478Z,95117.83
2019-03-13T02:50:14.764Z,95129.23
2019-03-13T02:52:44.492Z,95131.50
2019-03-13T02:55:14.069Z,95127.72
2019-03-13T02:57:43.673Z,95119.39
2019-03-13T03:00:17.499Z,95126.10
2019-03-13T03:02:51.686Z,95127.75
2019-03-13T03:05:21.337Z,95127.75
2019-03-13T03:07:52.123Z,95125.23
2019-03-13T03:10:22.769Z,95125.16
2019-03-13T03:12:54.656Z,95132.48
2019-03-13T03:15:25.570Z,95129.94
2019-03-13T03:17:56.360Z,95133.30
2019-03-13T03:20:25.990Z,95125.53
2019-03-13T03:22:55.735Z,95134.83
2019-03-13T03:25:27.572Z,95127.31
2019-03-13T03:27:57.204Z,95128.45
2019-03-13T03:30:27.396Z,95131.09
2019-03-13T03:32:59.772Z,95127.61
2019-03-13T03:35:29.523Z,95127.61
2019-03-13T03:37:59.110Z,95127.98
2019-03-13T03:40:31.822Z,95134.03
2019-03-13T03:43:03.105Z,95139.62
2019-03-13T03:45:36.302Z,95129.87
2019-03-13T03:48:07.369Z,95136.11
2019-03-13T03:50:38.269Z,95136.76
2019-03-13T03:53:08.256Z,95134.38
2019-03-13T03:55:37.929Z,95133.63
2019-03-13T03:58:12.260Z,95135.05
2019-03-13T04:00:42.109Z,95139.19
2019-03-13T04:03:17.412Z,95141.29
2019-03-13T04:05:45.047Z,95145.46
2019-03-13T04:08:14.742Z,95138.91
2019-03-13T04:10:44.404Z,95144.66
2019-03-13T04:13:15.699Z,95144.66
2019-03-13T04:15:45.384Z,95133.80
2019-03-13T04:18:15.021Z,95133.80
2019-03-13T04:20:45.713Z,95137.63
2019-03-13T04:23:16.483Z,95146.61
2019-03-13T04:25:47.675Z,95136.52
2019-03-13T04:28:17.329Z,95140.17
2019-03-13T04:30:47.049Z,95144.95
2019-03-13T04:33:18.354Z,95144.80
2019-03-13T04:35:50.659Z,95137.89
2019-03-13T04:38:24.141Z,95143.13
2019-03-13T04:40:55.673Z,95149.62
2019-03-13T04:43:25.007Z,95149.62
2019-03-13T04:46:00.274Z,95149.31
2019-03-13T04:48:30.005Z,95152.80
2019-03-13T04:51:00.680Z,95152.80
2019-03-13T04:53:30.337Z,95151.84
2019-03-13T04:56:03.532Z,95151.84
2019-03-13T04:58:36.300Z,95151.65
2019-03-13T05:01:09.540Z,95155.91
2019-03-13T05:03:39.224Z,95155.91
2019-03-13T05:06:23.540Z,95161.80
2019-03-13T05:09:23.210Z,95157.79
2019-03-13T05:11:53.261Z,95157.79
2019-03-13T05:14:26.797Z,95156.34
2019-03-13T05:16:57.542Z,95142.35
2019-03-13T05:19:27.183Z,95142.35
2019-03-13T05:21:57.022Z,95150.81
2019-03-13T05:24:27.975Z,95145.20
2019-03-13T05:26:59.030Z,95153.80
2019-03-13T05:29:29.654Z,95153.80
2019-03-13T05:32:02.213Z,95144.56
2019-03-13T05:34:34.000Z,95155.14
2019-03-13T05:37:05.259Z,95156.39
2019-03-13T05:39:38.561Z,95155.34
2019-03-13T05:42:08.378Z,95155.34
2019-03-13T05:44:41.426Z,95157.11
2019-03-13T05:47:11.239Z,95156.55
2019-03-13T05:49:40.922Z,95156.28
2019-03-13T05:52:13.825Z,95161.52
2019-03-13T05:54:45.793Z,95166.59
2019-03-13T05:57:17.536Z,95161.87
2019-03-13T05:59:50.143Z,95161.50
2019-03-13T06:02:19.753Z,95161.50
2019-03-13T06:04:51.776Z,95159.50
2019-03-13T06:07:23.397Z,95168.06
2019-03-13T06:10:00.665Z,95170.73
2019-03-13T06:12:31.520Z,95172.73
2019-03-13T06:15:03.524Z,95178.13
2019-03-13T06:17:33.782Z,95180.05
2019-03-13T06:20:04.759Z,95185.87
2019-03-13T06:22:34.339Z,95194.90
2019-03-13T06:25:05.348Z,95197.72
2019-03-13T06:27:36.049Z,95197.94
2019-03-13T06:30:11.765Z,95194.99
2019-03-13T06:32:41.537Z,95194.99
2019-03-13T06:35:11.461Z,95200.30
2019-03-13T06:37:45.290Z,95196.86
2019-03-13T06:40:15.149Z,95189.38
2019-03-13T06:42:46.119Z,95183.93
2019-03-13T06:45:18.293Z,95187.14
2019-03-13T06:47:49.475Z,95187.78
2019-03-13T06:50:21.534Z,95176.66
2019-03-13T06:52:50.916Z,95174.74
2019-03-13T06:55:24.207Z,95165.39
2019-03-13T06:57:55.767Z,95160.16
2019-03-13T07:00:45.261Z,95165.12
2019-03-13T07:03:36.581Z,95165.16
2019-03-13T07:06:16.913Z,95165.97
2019-03-13T07:09:08.292Z,95161.65
2019-03-13T07:11:55.603Z,95162.09
2019-03-13T07:14:46.978Z,95167.80
2019-03-13T07:17:25.210Z,95170.06
2019-03-13T07:20:16.712Z,95178.56
2019-03-13T07:23:07.217Z,95183.09
2019-03-13T07:26:00.308Z,95176.03
2019-03-13T07:28:37.872Z,95171.69
2019-03-13T07:31:22.365Z,95168.81
2019-03-13T07:34:19.432Z,95170.42
2019-03-13T07:37:03.124Z,95170.27
2019-03-13T07:39:51.932Z,95171.86
2019-03-13T07:42:46.397Z,95157.16
2019-03-13T07:45:36.790Z,95145.69
2019-03-13T07:48:25.214Z,95155.12
2019-03-13T07:51:12.050Z,95162.12
2019-03-13T07:53:50.848Z,95151.22
2019-03-13T07:56:50.380Z,95142.48
2019-03-13T07:59:56.928Z,95138.91
2019-03-13T08:02:46.409Z,95149.70
2019-03-13T08:05:27.964Z,95153.55
2019-03-13T08:08:15.477Z,95151.86
2019-03-13T08:11:20.979Z,95150.05
2019-03-13T08:14:12.075Z,95141.44
2019-03-13T08:17:09.017Z,95146.23
2019-03-13T08:20:18.992Z,95153.08
2019-03-13T08:23:07.414Z,95150.33
2019-03-13T08:25:51.639Z,95144.39
2019-03-13T08:28:43.283Z,95142.86
2019-03-13T08:31:29.845Z,95139.87
2019-03-13T08:34:23.864Z,95131.41
2019-03-13T08:37:18.084Z,95129.09
2019-03-13T08:40:09.626Z,95122.94
2019-03-13T08:43:01.687Z,95121.45
2019-03-13T08:46:06.155Z,95111.88
2019-03-13T08:48:54.994Z,95103.53
2019-03-13T08:52:00.629Z,95106.70
2019-03-13T08:55:00.697Z,95100.63
2019-03-13T08:58:12.355Z,95093.48
2019-03-13T09:01:12.016Z,95091.02
2019-03-13T09:04:07.695Z,95097.69
2019-03-13T09:07:10.913Z,95092.25
2019-03-13T09:09:52.031Z,95093.95
2019-03-13T09:12:55.464Z,95094.90
2019-03-13T09:15:42.577Z,95082.99
2019-03-13T09:18:37.521Z,95091.13
2019-03-13T09:21:46.496Z,95086.51
2019-03-13T09:24:34.515Z,95083.05
2019-03-13T09:27:35.322Z,95069.80
2019-03-13T09:30:28.427Z,95060.64
2019-03-13T09:33:25.071Z,95060.34
2019-03-13T09:36:16.709Z,95060.97
2019-03-13T09:39:02.613Z,95060.65
2019-03-13T09:41:41.857Z,95065.73
2019-03-13T09:44:38.909Z,95063.25
2019-03-13T09:47:36.488Z,95058.52
2019-03-13T09:50:14.683Z,95064.51
2019-03-13T09:53:04.076Z,95067.31
2019-03-13T09:55:52.636Z,95059.66
2019-03-13T09:58:47.535Z,95062.15
2019-03-13T10:01:53.598Z,95067.69
2019-03-13T10:04:42.208Z,95057.71
2019-03-13T10:07:49.306Z,95062.50
2019-03-13T10:10:42.094Z,95051.98
2019-03-13T10:13:39.379Z,95041.34
2019-03-13T10:16:28.012Z,95058.23
2019-03-13T10:19:15.019Z,95049.56
2019-03-13T10:22:03.478Z,95048.27
2019-03-13T10:24:44.823Z,95056.91
2019-03-13T10:27:24.402Z,95053.25
2019-03-13T10:30:02.759Z,95052.79
2019-03-13T10:32:52.867Z,95058.71
2019-03-13T10:35:31.979Z,95057.09
2019-03-13T10:38:22.494Z,95041.34
2019-03-13T10:41:17.440Z,95045.22
2019-03-13T10:44:04.631Z,95039.86
2019-03-13T10:46:46.212Z,95058.98
2019-03-13T10:49:29.490Z,95042.88
2019-03-13T10:52:28.581Z,95034.62
2019-03-13T10:55:22.849Z,95025.03
2019-03-13T10:58:17.286Z,95026.07
2019-03-13T11:01:11.303Z,95012.84
2019-03-13T11:03:59.204Z,95020.01
2019-03-13T11:06:55.037Z,95008.13
2019-03-13T11:09:25.775Z,95009.15
2019-03-13T11:12:02.419Z,94989.91
2019-03-13T11:14:47.836Z,94993.70
2019-03-13T11:17:36.398Z,94988.73
2019-03-13T11:20:30.526Z,94997.33
2019-03-13T11:23:24.859Z,94993.25
2019-03-13T11:26:07.299Z,94981.25
2019-03-13T11:29:01.241Z,94974.80
2019-03-13T11:31:49.708Z,94966.53
2019-03-13T11:34:56.299Z,94965.05
2019-03-13T11:37:58.418Z,94970.58
2019-03-13T11:40:45.932Z,94958.55
2019-03-13T11:43:34.398Z,94953.02
2019-03-13T11:46:21.981Z,94951.64
2019-03-13T11:49:09.342Z,94955.30
2019-03-13T11:52:08.036Z,94945.00
2019-03-13T11:55:04.813Z,94946.77
2019-03-13T11:58:06.437Z,94956.66
2019-03-13T12:00:47.673Z,94955.34
2019-03-13T12:03:41.817Z,94952.29
2019-03-13T12:06:21.316Z,94952.11
2019-03-13T12:09:10.014Z,94944.48
2019-03-13T12:12:02.228Z,94933.08
2019-03-13T12:14:43.701Z,94940.63
2019-03-13T12:17:37.024Z,94948.36
2019-03-13T12:20:33.156Z,94941.70
2019-03-13T12:23:31.580Z,94947.83
2019-03-13T12:26:18.741Z,94943.84
2019-03-13T12:29:10.272Z,94937.34
2019-03-13T12:32:04.981Z,94942.48
2019-03-13T12:34:52.339Z,94938.25
2019-03-13T12:37:35.101Z,94941.16
2019-03-13T12:40:37.638Z,94929.84
2019-03-13T12:43:38.757Z,94941.38
2019-03-13T12:46:26.985Z,94953.83
2019-03-13T12:49:24.899Z,94949.12
2019-03-13T12:52:09.658Z,94934.13
2019-03-13T12:54:58.337Z,94932.52
2019-03-13T12:57:46.942Z,94940.34
2019-03-13T13:00:37.356Z,94937.11
2019-03-13T13:03:20.376Z,94942.20
2019-03-13T13:06:09.100Z,94945.03
2019-03-13T13:08:57.011Z,94935.97
2019-03-13T13:11:55.822Z,94933.93
2019-03-13T13:14:52.459Z,94931.79
2019-03-13T13:17:38.959Z,94936.80
2019-03-13T13:20:10.663Z,94940.00
2019-03-13T13:22:40.507Z,94928.89
2019-03-13T13:25:12.755Z,94938.23
2019-03-13T13:27:43.837Z,94927.31
2019-03-13T13:30:14.471Z,94925.20
2019-03-13T13:32:44.163Z,94925.75
2019-03-13T13:35:14.129Z,94919.19
2019-03-13T13:37:44.196Z,94933.78
2019-03-13T13:40:14.256Z,94924.23
2019-03-13T13:42:43.919Z,94913.52
2019-03-13T13:45:43.100Z,94911.62
2019-03-13T13:48:17.086Z,94911.17
2019-03-13T13:50:47.216Z,94911.34
2019-03-13T13:53:17.138Z,94907.63
2019-03-13T13:55:47.968Z,94905.84
2019-03-13T13:58:17.826Z,94904.63
2019-03-13T14:00:47.858Z,94900.88
2019-03-13T14:03:17.545Z,94901.91
2019-03-13T14:05:47.229Z,94899.81
2019-03-13T14:08:16.945Z,94904.45
2019-03-13T14:10:46.809Z,94898.95
2019-03-13T14:13:17.094Z,94890.36
2019-03-13T14:15:47.344Z,94888.97
2019-03-13T14:18:17.289Z,94894.34
2019-03-13T14:20:47.203Z,94887.57
2019-03-13T14:23:17.190Z,94883.39
2019-03-13T14:25:47.021Z,94876.17
2019-03-13T14:28:16.627Z,94882.08
2019-03-13T14:30:46.272Z,94890.56
2019-03-13T14:33:16.146Z,94877.47
2019-03-13T14:35:46.563Z,94879.39
2019-03-13T14:38:18.142Z,94881.38
2019-03-13T14:40:47.968Z,94875.55
2019-03-13T14:43:18.329Z,94871.77
2019-03-13T14:45:48.388Z,94872.71
2019-03-13T14:48:17.988Z,94875.71
2019-03-13T14:50:47.704Z,94867.58
2019-03-13T14:53:17.549Z,94862.09
2019-03-13T14:55:47.239Z,94863.68
2019-03-13T14:58:16.830Z,94877.78
2019-03-13T15:00:46.613Z,94861.89
2019-03-13T15:03:16.761Z,94865.97
2019-03-13T15:05:46.535Z,94865.82
2019-03-13T15:08:18.154Z,94860.20
2019-03-13T15:10:47.999Z,94878.34
2019-03-13T15:13:17.785Z,94868.31
2019-03-13T15:15:47.565Z,94868.31
2019-03-13T15:18:17.337Z,94870.20
2019-03-13T15:20:47.419Z,94868.42
2019-03-13T15:23:17.309Z,94868.42
2019-03-13T15:25:48.870Z,94870.02
2019-03-13T15:28:18.575Z,94875.26
2019-03-13T15:30:48.385Z,94873.58
2019-03-13T15:33:18.020Z,94871.41
2019-03-13T15:35:47.911Z,94866.13
2019-03-13T15:38:17.987Z,94863.03
2019-03-13T15:40:47.897Z,94874.25
2019-03-13T15:43:17.803Z,94879.93
2019-03-13T15:45:47.570Z,94876.77
2019-03-13T15:48:18.717Z,94877.34
2019-03-13T15:50:48.486Z,94863.27
2019-03-13T15:53:18.220Z,94863.27
2019-03-13T15:55:48.095Z,94867.14
2019-03-13T15:58:17.906Z,94875.78
2019-03-13T16:00:47.751Z,94875.78
2019-03-13T16:03:17.520Z,94876.00
2019-03-13T16:05:47.273Z,94875.29
2019-03-13T16:08:17.070Z,94881.74
2019-03-13T16:10:46.931Z,94872.22
2019-03-13T16:13:16.772Z,94873.70
2019-03-13T16:15:46.691Z,94875.08
2019-03-13T16:18:16.304Z,94876.75
2019-03-13T16:20:46.170Z,94878.31
2019-03-13T16:23:17.366Z,94878.31
2019-03-13T16:25:47.034Z,94883.95
2019-03-13T16:28:16.752Z,94883.71
2019-03-13T16:30:46.657Z,94876.38
2019-03-13T16:33:16.731Z,94872.59
2019-03-13T16:35:46.803Z,94877.97
2019-03-13T16:38:16.614Z,94880.86
2019-03-13T16:40:47.666Z,94872.52
2019-03-13T16:43:18.371Z,94883.00
2019-03-13T16:45:48.099Z,94877.20
2019-03-13T16:48:17.966Z,94871.32
2019-03-13T16:50:47.772Z,94876.90
2019-03-13T16:53:17.616Z,94867.47
2019-03-13T16:55:47.208Z,94868.39
2019-03-13T16:58:16.931Z,94869.35
2019-03-13T17:00:46.663Z,94869.56
2019-03-13T17:03:16.429Z,94861.56
2019-03-13T17:05:46.098Z,94867.09
2019-03-13T17:08:15.887Z,94870.45
2019-03-13T17:10:45.635Z,94867.88
2019-03-13T17:13:15.433Z,94865.31
2019-03-13T17:15:45.049Z,94866.31
2019-03-13T17:18:14.831Z,94869.38
2019-03-13T17:20:44.598Z,94868.37
2019-03-13T17:23:14.429Z,94869.47
2019-03-13T17:25:44.168Z,94869.84
2019-03-13T17:28:13.941Z,94872.63
2019-03-13T17:30:43.613Z,94872.94
2019-03-13T17:33:13.270Z,94876.49
2019-03-13T17:35:43.130Z,94871.30
2019-03-13T17:38:13.175Z,94871.34
2019-03-13T17:40:42.795Z,94881.41
2019-03-13T17:43:12.527Z,94876.72
2019-03-13T17:45:42.334Z,94877.68
2019-03-13T17:48:12.102Z,94881.39
2019-03-13T17:50:41.824Z,94875.66
2019-03-13T17:53:11.470Z,94878.97
2019-03-13T17:55:41.284Z,94871.59
2019-03-13T17:58:10.946Z,94877.78
2019-03-13T18:00:50.649Z,94882.92
2019-03-13T18:03:20.697Z,94883.97
2019-03-13T18:05:50.411Z,94885.91
2019-03-13T18:08:20.015Z,94889.28
2019-03-13T18:10:50.119Z,94887.95
2019-03-13T18:13:19.971Z,94880.14
2019-03-13T18:15:49.694Z,94880.66
2019-03-13T18:18:19.477Z,94877.70
2019-03-13T18:20:49.319Z,94879.24
2019-03-13T18:23:19.018Z,94873.05
2019-03-13T18:25:49.246Z,94866.72
2019-03-13T18:28:18.994Z,94864.77
2019-03-13T18:30:48.773Z,94871.20
2019-03-13T18:33:18.455Z,94862.50
2019-03-13T18:35:48.176Z,94857.41
2019-03-13T18:38:17.974Z,94861.52
2019-03-13T18:40:47.622Z,94870.13
2019-03-13T18:43:17.352Z,94865.51
2019-03-13T18:45:47.050Z,94878.97
2019-03-13T18:48:16.794Z,94873.69
2019-03-13T18:50:46.397Z,94874.22
2019-03-13T18:53:16.114Z,94882.47
2019-03-13T18:55:45.887Z,94864.53
2019-03-13T18:58:15.567Z,94860.75
2019-03-13T19:00:45.187Z,94869.82
2019-03-13T19:03:14.973Z,94874.13
2019-03-13T19:05:44.591Z,94875.11
2019-03-13T19:08:14.214Z,94878.87
2019-03-13T19:10:43.954Z,94884.30
2019-03-13T19:13:13.664Z,94885.36
2019-03-13T19:15:43.355Z,94884.14
2019-03-13T19:18:13.203Z,94888.41
2019-03-13T19:20:43.081Z,94885.23
2019-03-13T19:23:14.277Z,94891.22
2019-03-13T19:25:44.214Z,94889.00
2019-03-13T19:28:13.853Z,94880.75
2019-03-13T19:30:43.488Z,94888.91
2019-03-13T19:33:13.261Z,94894.05
2019-03-13T19:35:43.027Z,94896.98
2019-03-13T19:38:12.933Z,94890.86
2019-03-13T19:40:42.815Z,94891.89
2019-03-13T19:43:12.389Z,94894.45
2019-03-13T19:45:42.675Z,94895.26
2019-03-13T19:48:12.556Z,94894.90
2019-03-13T19:50:42.279Z,94889.89
2019-03-13T19:53:12.169Z,94889.66
2019-03-13T19:55:42.047Z,94882.92
2019-03-13T19:58:11.740Z,94885.00
2019-03-13T20:00:42.321Z,94886.30
2019-03-13T20:03:12.216Z,94888.56
2019-03-13T20:05:45.872Z,94891.09
2019-03-13T20:08:14.112Z,94883.20
2019-03-13T20:10:44.276Z,94879.47
2019-03-13T20:13:13.966Z,94875.38
2019-03-13T20:15:43.689Z,94878.44
2019-03-13T20:18:13.342Z,94871.03
2019-03-13T20:20:43.147Z,94867.53
2019-03-13T20:23:12.914Z,94869.92
2019-03-13T20:25:42.826Z,94856.70
2019-03-13T20:28:12.383Z,94858.91
2019-03-13T20:30:42.125Z,94861.23
2019-03-13T20:33:12.019Z,94849.03
2019-03-13T20:35:41.843Z,94848.63
2019-03-13T20:38:11.446Z,94851.02
2019-03-13T20:40:41.191Z,94849.66
2019-03-13T20:43:10.989Z,94858.58
2019-03-13T20:45:40.812Z,94852.14
2019-03-13T20:48:10.574Z,94853.47
2019-03-13T20:50:40.293Z,94851.03
2019-03-13T20:53:09.980Z,94854.54
2019-03-13T20:55:39.440Z,94855.16
2019-03-13T20:58:09.142Z,94858.58
2019-03-13T21:00:38.787Z,94862.08
2019-03-13T21:03:08.637Z,94854.00
2019-03-13T21:05:38.306Z,94856.70
2019-03-13T21:08:08.153Z,94857.78
2019-03-13T21:10:37.784Z,94856.93
2019-03-13T21:13:07.524Z,94859.77
2019-03-13T21:15:37.153Z,94855.83
2019-03-13T21:18:07.027Z,94859.50
2019-03-13T21:20:36.942Z,94860.92
2019-03-13T21:23:06.836Z,94855.47
2019-03-13T21:25:38.748Z,94840.22
2019-03-13T21:28:08.352Z,94834.41
2019-03-13T21:30:38.128Z,94825.53
2019-03-13T21:33:08.000Z,94822.78
2019-03-13T21:35:37.681Z,94815.17
2019-03-13T21:38:07.350Z,94820.16
2019-03-13T21:40:36.982Z,94828.11
2019-03-13T21:43:06.709Z,94830.00
2019-03-13T21:45:41.463Z,94831.52
2019-03-13T21:48:07.878Z,94827.55
2019-03-13T21:50:37.618Z,94830.12
2019-03-13T21:53:07.363Z,94831.34
2019-03-13T21:55:37.270Z,94831.77
2019-03-13T21:58:07.127Z,94829.92
2019-03-13T22:00:37.112Z,94827.17
2019-03-13T22:03:07.082Z,94818.78
2019-03-13T22:05:36.831Z,94819.89
2019-03-13T22:08:06.430Z,94824.84
2019-03-13T22:10:36.243Z,94827.67
2019-03-13T22:13:06.040Z,94827.37
2019-03-13T22:15:35.946Z,94828.28
2019-03-13T22:18:05.802Z,94819.82
2019-03-13T22:20:35.514Z,94827.91
2019-03-13T22:23:05.331Z,94821.84
2019-03-13T22:25:35.078Z,94824.72
2019-03-13T22:28:04.735Z,94823.92
2019-03-13T22:30:34.375Z,94814.62
2019-03-13T22:33:05.361Z,94811.76
2019-03-13T22:35:34.945Z,94818.61
2019-03-13T22:38:04.468Z,94809.55
2019-03-13T22:40:35.577Z,94808.01
2019-03-13T22:43:05.212Z,94806.00
2019-03-13T22:45:35.088Z,94804.48
2019-03-13T22:48:04.685Z,94804.52
2019-03-13T22:50:34.446Z,94796.50
2019-03-13T22:53:04.302Z,94804.34
2019-03-13T22:55:33.965Z,94807.09
2019-03-13T22:58:03.828Z,94813.30
2019-03-13T23:01:21.454Z,94809.98
2019-03-13T23:03:51.753Z,94808.33
2019-03-13T23:06:21.677Z,94804.42
2019-03-13T23:08:51.409Z,94812.72
2019-03-13T23:11:21.393Z,94806.99
2019-03-13T23:13:51.010Z,94820.63
2019-03-13T23:16:23.749Z,94816.41
2019-03-13T23:18:52.048Z,94806.48
2019-03-13T23:21:21.642Z,94807.59
2019-03-13T23:23:51.247Z,94801.71
2019-03-13T23:26:20.876Z,94807.53
2019-03-13T23:28:50.464Z,94803.36
2019-03-13T23:31:20.325Z,94800.30
2019-03-13T23:33:49.917Z,94802.26
2019-03-13T23:36:19.667Z,94795.83
2019-03-13T23:38:49.313Z,94797.61
2019-03-13T23:41:19.108Z,94792.42
2019-03-13T23:43:49.027Z,94786.49
2019-03-13T23:46:18.740Z,94778.21
2019-03-13T23:48:48.489Z,94787.52
2019-03-13T23:51:18.298Z,94789.89
2019-03-13T23:53:47.920Z,94788.91
2019-03-13T23:56:17.659Z,94779.20
2019-03-13T23:58:49.112Z,94776.45
